sensor_id;sensor_type;location;lat;lon;timestamp;temperature;humidity
16801;DHT22;8518;53.236;10.384;2022-08-19T00:01:51;21.50;99.90
16801;DHT22;8518;53.236;10.384;2022-08-19T00:04:20;21.40;99.90
16801;DHT22;8518;53.236;10.384;2022-08-19T00:06:46;21.10;99.90
16801;DHT22;8518;53.236;10.384;2022-08-19T00:09:15;21.00;99.90
16801;DHT22;8518;53.236;10.384;2022-08-19T00:11:41;21.20;99.90
16801;DHT22;8518;53.236;10.384;2022-08-19T00:14:10;21.40;99.90
16801;DHT22;8518;53.236;10.384;2022-08-19T00:16:40;21.70;99.90
16801;DHT22;8518;53.236;10.384;2022-08-19T00:19:07;21.80;99.90
16801;DHT22;8518;53.236;10.384;2022-08-19T00:21:32;22.00;99.90
16801;DHT22;8518;53.236;10.384;2022-08-19T00:24:01;22.10;99.90
16801;DHT22;8518;53.236;10.384;2022-08-19T00:26:28;22.20;99.90
16801;DHT22;8518;53.236;10.384;2022-08-19T00:28:54;22.10;99.90
16801;DHT22;8518;53.236;10.384;2022-08-19T00:31:20;21.90;99.90
16801;DHT22;8518;53.236;10.384;2022-08-19T00:33:46;22.00;99.90
16801;DHT22;8518;53.236;10.384;2022-08-19T00:36:14;22.00;99.90
16801;DHT22;8518;53.236;10.384;2022-08-19T00:38:40;22.10;99.90
16801;DHT22;8518;53.236;10.384;2022-08-19T00:41:11;22.10;99.90
16801;DHT22;8518;53.236;10.384;2022-08-19T00:43:37;22.10;99.90
16801;DHT22;8518;53.236;10.384;2022-08-19T00:46:04;22.10;99.90
16801;DHT22;8518;53.236;10.384;2022-08-19T00:48:30;22.00;99.90
16801;DHT22;8518;53.236;10.384;2022-08-19T00:50:57;21.90;99.90
16801;DHT22;8518;53.236;10.384;2022-08-19T00:53:26;21.80;99.90
16801;DHT22;8518;53.236;10.384;2022-08-19T00:55:55;21.70;99.90
16801;DHT22;8518;53.236;10.384;2022-08-19T00:58:25;21.40;99.90
16801;DHT22;8518;53.236;10.384;2022-08-19T01:00:52;21.30;99.90
16801;DHT22;8518;53.236;10.384;2022-08-19T01:03:19;21.20;99.90
16801;DHT22;8518;53.236;10.384;2022-08-19T01:05:47;21.10;99.90
16801;DHT22;8518;53.236;10.384;2022-08-19T01:08:15;21.00;99.90
16801;DHT22;8518;53.236;10.384;2022-08-19T01:10:46;20.90;99.90
16801;DHT22;8518;53.236;10.384;2022-08-19T01:13:15;20.70;99.90
16801;DHT22;8518;53.236;10.384;2022-08-19T01:15:46;20.80;99.90
16801;DHT22;8518;53.236;10.384;2022-08-19T01:18:15;20.90;99.90
16801;DHT22;8518;53.236;10.384;2022-08-19T01:20:42;20.90;99.90
16801;DHT22;8518;53.236;10.384;2022-08-19T01:23:09;21.00;99.90
16801;DHT22;8518;53.236;10.384;2022-08-19T01:25:55;20.90;99.90
16801;DHT22;8518;53.236;10.384;2022-08-19T01:28:24;20.90;99.90
16801;DHT22;8518;53.236;10.384;2022-08-19T01:30:54;20.90;99.90
16801;DHT22;8518;53.236;10.384;2022-08-19T01:33:20;21.00;99.90
16801;DHT22;8518;53.236;10.384;2022-08-19T01:35:47;21.10;99.90
16801;DHT22;8518;53.236;10.384;2022-08-19T01:38:25;21.10;99.90
16801;DHT22;8518;53.236;10.384;2022-08-19T01:40:51;20.90;99.90
16801;DHT22;8518;53.236;10.384;2022-08-19T01:43:18;20.80;99.90
16801;DHT22;8518;53.236;10.384;2022-08-19T01:45:45;20.70;99.90
16801;DHT22;8518;53.236;10.384;2022-08-19T01:48:12;20.70;99.90
16801;DHT22;8518;53.236;10.384;2022-08-19T01:50:38;20.80;99.90
16801;DHT22;8518;53.236;10.384;2022-08-19T01:53:08;20.70;99.90
16801;DHT22;8518;53.236;10.384;2022-08-19T01:55:37;20.50;99.90
16801;DHT22;8518;53.236;10.384;2022-08-19T01:58:05;20.60;99.90
16801;DHT22;8518;53.236;10.384;2022-08-19T02:00:32;20.60;99.90
16801;DHT22;8518;53.236;10.384;2022-08-19T02:02:58;20.60;99.90
16801;DHT22;8518;53.236;10.384;2022-08-19T02:05:24;20.70;99.90
16801;DHT22;8518;53.236;10.384;2022-08-19T02:07:50;20.70;99.90
16801;DHT22;8518;53.236;10.384;2022-08-19T02:10:21;20.80;99.90
16801;DHT22;8518;53.236;10.384;2022-08-19T02:12:47;20.70;99.90
16801;DHT22;8518;53.236;10.384;2022-08-19T02:15:15;20.60;99.90
16801;DHT22;8518;53.236;10.384;2022-08-19T02:17:42;20.50;99.90
16801;DHT22;8518;53.236;10.384;2022-08-19T02:20:08;20.50;99.90
16801;DHT22;8518;53.236;10.384;2022-08-19T02:22:34;20.60;99.90
16801;DHT22;8518;53.236;10.384;2022-08-19T02:25:01;20.60;99.90
16801;DHT22;8518;53.236;10.384;2022-08-19T02:27:27;20.40;99.90
16801;DHT22;8518;53.236;10.384;2022-08-19T02:29:53;20.40;99.90
16801;DHT22;8518;53.236;10.384;2022-08-19T02:32:19;20.30;99.90
16801;DHT22;8518;53.236;10.384;2022-08-19T02:34:47;20.30;99.90
16801;DHT22;8518;53.236;10.384;2022-08-19T02:37:13;20.30;99.90
16801;DHT22;8518;53.236;10.384;2022-08-19T02:39:58;20.30;99.90
16801;DHT22;8518;53.236;10.384;2022-08-19T02:42:25;20.30;99.90
16801;DHT22;8518;53.236;10.384;2022-08-19T02:44:50;20.30;99.90
16801;DHT22;8518;53.236;10.384;2022-08-19T02:47:17;20.30;99.90
16801;DHT22;8518;53.236;10.384;2022-08-19T02:49:44;20.40;99.90
16801;DHT22;8518;53.236;10.384;2022-08-19T02:52:10;20.60;99.90
16801;DHT22;8518;53.236;10.384;2022-08-19T02:54:37;20.80;99.90
16801;DHT22;8518;53.236;10.384;2022-08-19T02:57:04;20.80;99.90
16801;DHT22;8518;53.236;10.384;2022-08-19T02:59:31;20.70;99.90
16801;DHT22;8518;53.236;10.384;2022-08-19T03:01:57;20.50;99.90
16801;DHT22;8518;53.236;10.384;2022-08-19T03:04:23;20.30;99.90
16801;DHT22;8518;53.236;10.384;2022-08-19T03:06:50;20.30;99.90
16801;DHT22;8518;53.236;10.384;2022-08-19T03:09:18;20.30;99.90
16801;DHT22;8518;53.236;10.384;2022-08-19T03:11:44;20.30;99.90
16801;DHT22;8518;53.236;10.384;2022-08-19T03:14:10;20.30;99.90
16801;DHT22;8518;53.236;10.384;2022-08-19T03:16:50;20.40;99.90
16801;DHT22;8518;53.236;10.384;2022-08-19T03:19:18;20.40;99.90
16801;DHT22;8518;53.236;10.384;2022-08-19T03:21:44;20.40;99.90
16801;DHT22;8518;53.236;10.384;2022-08-19T03:24:10;20.50;99.90
16801;DHT22;8518;53.236;10.384;2022-08-19T03:26:42;20.60;99.90
16801;DHT22;8518;53.236;10.384;2022-08-19T03:29:08;20.50;99.90
16801;DHT22;8518;53.236;10.384;2022-08-19T03:31:37;20.50;99.90
16801;DHT22;8518;53.236;10.384;2022-08-19T03:34:04;20.60;99.90
16801;DHT22;8518;53.236;10.384;2022-08-19T03:36:30;20.60;99.90
16801;DHT22;8518;53.236;10.384;2022-08-19T03:38:59;20.60;99.90
16801;DHT22;8518;53.236;10.384;2022-08-19T03:41:28;20.60;99.90
16801;DHT22;8518;53.236;10.384;2022-08-19T03:43:54;20.50;99.90
16801;DHT22;8518;53.236;10.384;2022-08-19T03:46:23;20.40;99.90
16801;DHT22;8518;53.236;10.384;2022-08-19T03:48:51;20.30;99.90
16801;DHT22;8518;53.236;10.384;2022-08-19T03:51:33;20.10;99.90
16801;DHT22;8518;53.236;10.384;2022-08-19T03:54:01;20.00;99.90
16801;DHT22;8518;53.236;10.384;2022-08-19T03:56:28;20.00;99.90
16801;DHT22;8518;53.236;10.384;2022-08-19T03:58:56;20.10;99.90
16801;DHT22;8518;53.236;10.384;2022-08-19T04:01:25;20.10;99.90
16801;DHT22;8518;53.236;10.384;2022-08-19T04:03:56;20.20;99.90
16801;DHT22;8518;53.236;10.384;2022-08-19T04:06:30;20.40;99.90
16801;DHT22;8518;53.236;10.384;2022-08-19T04:08:57;20.40;99.90
16801;DHT22;8518;53.236;10.384;2022-08-19T04:11:30;20.40;99.90
16801;DHT22;8518;53.236;10.384;2022-08-19T04:13:56;20.40;99.90
16801;DHT22;8518;53.236;10.384;2022-08-19T04:16:24;20.50;99.90
16801;DHT22;8518;53.236;10.384;2022-08-19T04:18:53;20.80;99.90
16801;DHT22;8518;53.236;10.384;2022-08-19T04:21:25;21.10;99.90
16801;DHT22;8518;53.236;10.384;2022-08-19T04:23:51;21.20;99.90
16801;DHT22;8518;53.236;10.384;2022-08-19T04:26:28;21.30;99.90
16801;DHT22;8518;53.236;10.384;2022-08-19T04:28:58;21.50;99.90
16801;DHT22;8518;53.236;10.384;2022-08-19T04:31:27;21.80;99.90
16801;DHT22;8518;53.236;10.384;2022-08-19T04:33:58;22.00;99.90
16801;DHT22;8518;53.236;10.384;2022-08-19T04:36:27;22.30;99.90
16801;DHT22;8518;53.236;10.384;2022-08-19T04:38:55;22.40;99.90
16801;DHT22;8518;53.236;10.384;2022-08-19T04:41:21;22.50;99.90
16801;DHT22;8518;53.236;10.384;2022-08-19T04:44:06;22.60;99.90
16801;DHT22;8518;53.236;10.384;2022-08-19T04:46:32;22.60;99.90
16801;DHT22;8518;53.236;10.384;2022-08-19T04:48:59;22.60;99.90
16801;DHT22;8518;53.236;10.384;2022-08-19T04:51:25;22.60;99.90
16801;DHT22;8518;53.236;10.384;2022-08-19T04:53:52;22.60;99.90
16801;DHT22;8518;53.236;10.384;2022-08-19T04:56:18;22.70;99.90
16801;DHT22;8518;53.236;10.384;2022-08-19T04:58:48;22.70;99.90
16801;DHT22;8518;53.236;10.384;2022-08-19T05:01:23;22.70;99.90
16801;DHT22;8518;53.236;10.384;2022-08-19T05:03:50;22.70;99.90
16801;DHT22;8518;53.236;10.384;2022-08-19T05:06:17;22.60;99.90
16801;DHT22;8518;53.236;10.384;2022-08-19T05:08:44;22.60;99.90
16801;DHT22;8518;53.236;10.384;2022-08-19T05:13:37;22.70;99.90
16801;DHT22;8518;53.236;10.384;2022-08-19T05:16:03;22.70;99.90
16801;DHT22;8518;53.236;10.384;2022-08-19T05:18:29;22.70;99.90
16801;DHT22;8518;53.236;10.384;2022-08-19T05:21:16;22.70;99.90
16801;DHT22;8518;53.236;10.384;2022-08-19T05:24:01;22.80;99.90
16801;DHT22;8518;53.236;10.384;2022-08-19T05:26:27;22.80;99.90
16801;DHT22;8518;53.236;10.384;2022-08-19T05:28:54;22.80;99.90
16801;DHT22;8518;53.236;10.384;2022-08-19T05:31:20;22.80;99.90
16801;DHT22;8518;53.236;10.384;2022-08-19T05:33:46;22.80;99.90
16801;DHT22;8518;53.236;10.384;2022-08-19T05:36:11;22.90;99.90
16801;DHT22;8518;53.236;10.384;2022-08-19T05:38:38;22.90;99.90
16801;DHT22;8518;53.236;10.384;2022-08-19T05:41:13;22.90;99.90
16801;DHT22;8518;53.236;10.384;2022-08-19T05:43:39;22.70;99.90
16801;DHT22;8518;53.236;10.384;2022-08-19T05:46:06;22.60;99.90
16801;DHT22;8518;53.236;10.384;2022-08-19T05:48:33;22.60;99.90
16801;DHT22;8518;53.236;10.384;2022-08-19T05:51:06;22.50;99.90
16801;DHT22;8518;53.236;10.384;2022-08-19T05:53:35;22.40;99.90
16801;DHT22;8518;53.236;10.384;2022-08-19T05:56:10;22.40;99.90
16801;DHT22;8518;53.236;10.384;2022-08-19T05:58:37;22.30;99.90
16801;DHT22;8518;53.236;10.384;2022-08-19T06:01:04;22.20;99.90
16801;DHT22;8518;53.236;10.384;2022-08-19T06:03:35;22.20;99.90
16801;DHT22;8518;53.236;10.384;2022-08-19T06:06:03;22.30;99.90
16801;DHT22;8518;53.236;10.384;2022-08-19T06:08:29;22.40;99.90
16801;DHT22;8518;53.236;10.384;2022-08-19T06:10:56;22.50;99.90
16801;DHT22;8518;53.236;10.384;2022-08-19T06:13:22;22.40;99.90
16801;DHT22;8518;53.236;10.384;2022-08-19T06:15:48;22.20;99.90
16801;DHT22;8518;53.236;10.384;2022-08-19T06:18:15;21.80;99.90
16801;DHT22;8518;53.236;10.384;2022-08-19T06:20:41;21.60;99.90
16801;DHT22;8518;53.236;10.384;2022-08-19T06:23:07;21.40;99.90
16801;DHT22;8518;53.236;10.384;2022-08-19T06:25:34;21.30;99.90
16801;DHT22;8518;53.236;10.384;2022-08-19T06:28:00;21.30;99.90
16801;DHT22;8518;53.236;10.384;2022-08-19T06:30:26;21.10;99.90
16801;DHT22;8518;53.236;10.384;2022-08-19T06:32:52;21.00;99.90
16801;DHT22;8518;53.236;10.384;2022-08-19T06:35:18;20.80;99.90
16801;DHT22;8518;53.236;10.384;2022-08-19T06:37:43;20.70;99.90
16801;DHT22;8518;53.236;10.384;2022-08-19T06:40:10;20.60;99.90
16801;DHT22;8518;53.236;10.384;2022-08-19T06:42:36;20.50;99.90
16801;DHT22;8518;53.236;10.384;2022-08-19T06:45:04;20.40;99.90
16801;DHT22;8518;53.236;10.384;2022-08-19T06:47:31;20.30;99.90
16801;DHT22;8518;53.236;10.384;2022-08-19T06:49:59;20.20;99.90
16801;DHT22;8518;53.236;10.384;2022-08-19T06:52:33;20.20;99.90
16801;DHT22;8518;53.236;10.384;2022-08-19T06:55:01;20.10;99.90
16801;DHT22;8518;53.236;10.384;2022-08-19T06:57:27;20.10;99.90
16801;DHT22;8518;53.236;10.384;2022-08-19T06:59:57;20.00;99.90
16801;DHT22;8518;53.236;10.384;2022-08-19T07:02:26;20.00;99.90
16801;DHT22;8518;53.236;10.384;2022-08-19T07:04:52;19.90;99.90
16801;DHT22;8518;53.236;10.384;2022-08-19T07:07:19;19.90;99.90
16801;DHT22;8518;53.236;10.384;2022-08-19T07:09:45;19.80;99.90
16801;DHT22;8518;53.236;10.384;2022-08-19T07:12:13;19.70;99.90
16801;DHT22;8518;53.236;10.384;2022-08-19T07:14:41;19.70;99.90
16801;DHT22;8518;53.236;10.384;2022-08-19T07:17:11;19.70;99.90
16801;DHT22;8518;53.236;10.384;2022-08-19T07:19:38;19.80;99.90
16801;DHT22;8518;53.236;10.384;2022-08-19T07:22:06;19.80;99.90
16801;DHT22;8518;53.236;10.384;2022-08-19T07:24:32;19.70;99.90
16801;DHT22;8518;53.236;10.384;2022-08-19T07:27:00;19.70;99.90
16801;DHT22;8518;53.236;10.384;2022-08-19T07:29:30;19.70;99.90
16801;DHT22;8518;53.236;10.384;2022-08-19T07:31:56;19.60;99.90
16801;DHT22;8518;53.236;10.384;2022-08-19T07:34:25;19.70;99.90
16801;DHT22;8518;53.236;10.384;2022-08-19T07:36:52;19.70;99.90
16801;DHT22;8518;53.236;10.384;2022-08-19T07:39:29;19.70;99.90
16801;DHT22;8518;53.236;10.384;2022-08-19T07:41:56;19.70;99.90
16801;DHT22;8518;53.236;10.384;2022-08-19T07:44:23;19.70;99.90
16801;DHT22;8518;53.236;10.384;2022-08-19T07:46:51;19.80;99.90
16801;DHT22;8518;53.236;10.384;2022-08-19T07:49:19;20.00;99.90
16801;DHT22;8518;53.236;10.384;2022-08-19T07:52:01;20.00;99.90
16801;DHT22;8518;53.236;10.384;2022-08-19T07:54:30;20.10;99.90
16801;DHT22;8518;53.236;10.384;2022-08-19T07:56:56;20.20;99.90
16801;DHT22;8518;53.236;10.384;2022-08-19T07:59:23;20.10;99.90
16801;DHT22;8518;53.236;10.384;2022-08-19T08:01:49;20.10;99.90
16801;DHT22;8518;53.236;10.384;2022-08-19T08:04:17;20.00;99.90
16801;DHT22;8518;53.236;10.384;2022-08-19T08:07:02;20.00;99.90
16801;DHT22;8518;53.236;10.384;2022-08-19T08:09:46;20.00;99.90
16801;DHT22;8518;53.236;10.384;2022-08-19T08:12:17;19.90;99.90
16801;DHT22;8518;53.236;10.384;2022-08-19T08:14:50;19.90;99.90
16801;DHT22;8518;53.236;10.384;2022-08-19T08:17:18;19.80;99.90
16801;DHT22;8518;53.236;10.384;2022-08-19T08:19:45;19.90;99.90
16801;DHT22;8518;53.236;10.384;2022-08-19T08:22:14;19.90;99.90
16801;DHT22;8518;53.236;10.384;2022-08-19T08:25:11;19.80;99.90
16801;DHT22;8518;53.236;10.384;2022-08-19T08:27:41;19.80;99.90
16801;DHT22;8518;53.236;10.384;2022-08-19T08:30:23;19.80;99.90
16801;DHT22;8518;53.236;10.384;2022-08-19T08:32:49;19.80;99.90
16801;DHT22;8518;53.236;10.384;2022-08-19T08:35:18;19.80;99.90
16801;DHT22;8518;53.236;10.384;2022-08-19T08:37:45;19.80;99.90
16801;DHT22;8518;53.236;10.384;2022-08-19T08:40:29;19.80;99.90
16801;DHT22;8518;53.236;10.384;2022-08-19T08:43:06;19.80;99.90
16801;DHT22;8518;53.236;10.384;2022-08-19T08:45:35;19.80;99.90
16801;DHT22;8518;53.236;10.384;2022-08-19T08:48:07;19.80;99.90
16801;DHT22;8518;53.236;10.384;2022-08-19T08:50:41;19.70;99.90
16801;DHT22;8518;53.236;10.384;2022-08-19T08:53:09;19.70;99.90
16801;DHT22;8518;53.236;10.384;2022-08-19T08:55:36;19.70;99.90
16801;DHT22;8518;53.236;10.384;2022-08-19T08:58:09;19.70;99.90
16801;DHT22;8518;53.236;10.384;2022-08-19T09:00:43;19.70;99.90
16801;DHT22;8518;53.236;10.384;2022-08-19T09:03:19;19.70;99.90
16801;DHT22;8518;53.236;10.384;2022-08-19T09:06:01;19.60;99.90
16801;DHT22;8518;53.236;10.384;2022-08-19T09:10:55;19.60;99.90
16801;DHT22;8518;53.236;10.384;2022-08-19T09:13:42;19.70;99.90
16801;DHT22;8518;53.236;10.384;2022-08-19T09:16:16;19.70;99.90
16801;DHT22;8518;53.236;10.384;2022-08-19T09:18:48;19.70;99.90
16801;DHT22;8518;53.236;10.384;2022-08-19T09:21:17;19.70;99.90
16801;DHT22;8518;53.236;10.384;2022-08-19T09:23:44;19.70;99.90
16801;DHT22;8518;53.236;10.384;2022-08-19T09:26:13;19.70;99.90
16801;DHT22;8518;53.236;10.384;2022-08-19T09:28:41;19.70;99.90
16801;DHT22;8518;53.236;10.384;2022-08-19T09:31:11;19.70;99.90
16801;DHT22;8518;53.236;10.384;2022-08-19T09:33:37;19.70;99.90
16801;DHT22;8518;53.236;10.384;2022-08-19T09:36:08;19.70;99.90
16801;DHT22;8518;53.236;10.384;2022-08-19T09:38:36;19.80;99.90
16801;DHT22;8518;53.236;10.384;2022-08-19T09:41:06;19.80;99.90
16801;DHT22;8518;53.236;10.384;2022-08-19T09:43:33;19.80;99.90
16801;DHT22;8518;53.236;10.384;2022-08-19T09:46:03;19.80;99.90
16801;DHT22;8518;53.236;10.384;2022-08-19T09:48:31;19.90;99.90
16801;DHT22;8518;53.236;10.384;2022-08-19T09:51:05;20.00;99.90
16801;DHT22;8518;53.236;10.384;2022-08-19T09:53:34;20.20;99.90
16801;DHT22;8518;53.236;10.384;2022-08-19T09:56:00;20.20;99.90
16801;DHT22;8518;53.236;10.384;2022-08-19T09:58:26;20.30;99.90
16801;DHT22;8518;53.236;10.384;2022-08-19T10:00:57;20.20;99.90
16801;DHT22;8518;53.236;10.384;2022-08-19T10:03:24;20.20;99.90
16801;DHT22;8518;53.236;10.384;2022-08-19T10:05:50;20.20;99.90
16801;DHT22;8518;53.236;10.384;2022-08-19T10:08:23;20.20;99.90
16801;DHT22;8518;53.236;10.384;2022-08-19T10:10:49;20.20;99.90
16801;DHT22;8518;53.236;10.384;2022-08-19T10:13:18;20.30;99.90
16801;DHT22;8518;53.236;10.384;2022-08-19T10:15:45;20.40;99.90
16801;DHT22;8518;53.236;10.384;2022-08-19T10:18:11;20.40;99.90
16801;DHT22;8518;53.236;10.384;2022-08-19T10:20:36;20.40;99.90
16801;DHT22;8518;53.236;10.384;2022-08-19T10:23:03;20.40;99.90
16801;DHT22;8518;53.236;10.384;2022-08-19T10:25:29;20.50;99.90
16801;DHT22;8518;53.236;10.384;2022-08-19T10:27:54;20.60;99.90
16801;DHT22;8518;53.236;10.384;2022-08-19T10:30:20;20.60;99.90
16801;DHT22;8518;53.236;10.384;2022-08-19T10:32:46;20.60;99.90
16801;DHT22;8518;53.236;10.384;2022-08-19T10:35:13;20.70;99.90
16801;DHT22;8518;53.236;10.384;2022-08-19T10:37:39;20.80;99.90
16801;DHT22;8518;53.236;10.384;2022-08-19T10:40:07;20.90;99.90
16801;DHT22;8518;53.236;10.384;2022-08-19T10:42:34;21.00;99.90
16801;DHT22;8518;53.236;10.384;2022-08-19T10:45:00;21.10;99.90
16801;DHT22;8518;53.236;10.384;2022-08-19T10:47:26;21.20;99.90
16801;DHT22;8518;53.236;10.384;2022-08-19T10:49:55;21.30;99.90
16801;DHT22;8518;53.236;10.384;2022-08-19T10:52:41;21.40;99.90
16801;DHT22;8518;53.236;10.384;2022-08-19T10:55:08;21.40;99.90
16801;DHT22;8518;53.236;10.384;2022-08-19T10:57:52;21.40;99.90
16801;DHT22;8518;53.236;10.384;2022-08-19T11:00:20;21.30;99.90
16801;DHT22;8518;53.236;10.384;2022-08-19T11:02:46;21.30;99.90
16801;DHT22;8518;53.236;10.384;2022-08-19T11:05:12;21.30;99.90
16801;DHT22;8518;53.236;10.384;2022-08-19T11:07:39;21.30;99.90
16801;DHT22;8518;53.236;10.384;2022-08-19T11:10:05;21.30;99.90
16801;DHT22;8518;53.236;10.384;2022-08-19T11:12:31;21.30;99.90
16801;DHT22;8518;53.236;10.384;2022-08-19T11:14:58;21.30;99.90
16801;DHT22;8518;53.236;10.384;2022-08-19T11:17:24;21.40;99.90
16801;DHT22;8518;53.236;10.384;2022-08-19T11:19:50;21.40;99.90
16801;DHT22;8518;53.236;10.384;2022-08-19T11:22:15;21.60;99.90
16801;DHT22;8518;53.236;10.384;2022-08-19T11:24:42;21.60;99.90
16801;DHT22;8518;53.236;10.384;2022-08-19T11:27:09;21.80;99.90
16801;DHT22;8518;53.236;10.384;2022-08-19T11:29:38;21.80;99.90
16801;DHT22;8518;53.236;10.384;2022-08-19T11:32:09;21.80;99.90
16801;DHT22;8518;53.236;10.384;2022-08-19T11:34:35;22.00;99.90
16801;DHT22;8518;53.236;10.384;2022-08-19T11:37:02;22.20;99.90
16801;DHT22;8518;53.236;10.384;2022-08-19T11:39:30;22.40;99.90
16801;DHT22;8518;53.236;10.384;2022-08-19T11:42:00;22.40;99.90
16801;DHT22;8518;53.236;10.384;2022-08-19T11:44:27;22.50;99.90
16801;DHT22;8518;53.236;10.384;2022-08-19T11:46:55;22.40;99.90
16801;DHT22;8518;53.236;10.384;2022-08-19T11:49:21;22.40;99.90
16801;DHT22;8518;53.236;10.384;2022-08-19T11:51:47;22.40;99.90
16801;DHT22;8518;53.236;10.384;2022-08-19T11:54:16;22.40;99.90
16801;DHT22;8518;53.236;10.384;2022-08-19T11:56:43;22.40;99.90
16801;DHT22;8518;53.236;10.384;2022-08-19T11:59:09;22.50;99.90
16801;DHT22;8518;53.236;10.384;2022-08-19T12:01:36;22.60;99.90
16801;DHT22;8518;53.236;10.384;2022-08-19T12:04:02;22.60;99.90
16801;DHT22;8518;53.236;10.384;2022-08-19T12:06:32;22.70;99.90
16801;DHT22;8518;53.236;10.384;2022-08-19T12:09:05;22.70;99.90
16801;DHT22;8518;53.236;10.384;2022-08-19T12:11:32;22.70;99.90
16801;DHT22;8518;53.236;10.384;2022-08-19T12:13:58;22.70;99.90
16801;DHT22;8518;53.236;10.384;2022-08-19T12:16:26;22.60;99.90
16801;DHT22;8518;53.236;10.384;2022-08-19T12:18:53;22.60;99.90
16801;DHT22;8518;53.236;10.384;2022-08-19T12:21:22;22.40;99.90
16801;DHT22;8518;53.236;10.384;2022-08-19T12:23:49;22.50;99.90
16801;DHT22;8518;53.236;10.384;2022-08-19T12:26:16;22.50;99.90
16801;DHT22;8518;53.236;10.384;2022-08-19T12:28:42;22.50;99.90
16801;DHT22;8518;53.236;10.384;2022-08-19T12:31:09;22.60;99.90
16801;DHT22;8518;53.236;10.384;2022-08-19T12:33:37;22.40;99.90
16801;DHT22;8518;53.236;10.384;2022-08-19T12:36:05;22.40;99.90
16801;DHT22;8518;53.236;10.384;2022-08-19T12:38:33;22.40;99.90
16801;DHT22;8518;53.236;10.384;2022-08-19T12:41:00;22.40;99.90
16801;DHT22;8518;53.236;10.384;2022-08-19T12:43:26;22.50;99.90
16801;DHT22;8518;53.236;10.384;2022-08-19T12:45:52;22.60;99.90
16801;DHT22;8518;53.236;10.384;2022-08-19T12:48:17;22.60;99.90
16801;DHT22;8518;53.236;10.384;2022-08-19T12:50:44;22.60;99.90
16801;DHT22;8518;53.236;10.384;2022-08-19T12:53:14;22.70;99.90
16801;DHT22;8518;53.236;10.384;2022-08-19T12:55:41;22.80;99.90
16801;DHT22;8518;53.236;10.384;2022-08-19T12:58:09;22.90;99.90
16801;DHT22;8518;53.236;10.384;2022-08-19T13:00:35;22.90;99.90
16801;DHT22;8518;53.236;10.384;2022-08-19T13:03:01;22.90;99.90
16801;DHT22;8518;53.236;10.384;2022-08-19T13:05:29;22.80;99.90
16801;DHT22;8518;53.236;10.384;2022-08-19T13:07:56;22.80;99.90
16801;DHT22;8518;53.236;10.384;2022-08-19T13:10:34;22.80;99.90
16801;DHT22;8518;53.236;10.384;2022-08-19T13:13:02;23.00;99.90
16801;DHT22;8518;53.236;10.384;2022-08-19T13:15:28;23.10;99.90
16801;DHT22;8518;53.236;10.384;2022-08-19T13:17:57;23.30;99.90
16801;DHT22;8518;53.236;10.384;2022-08-19T13:20:23;23.50;99.90
16801;DHT22;8518;53.236;10.384;2022-08-19T13:22:49;23.70;99.90
16801;DHT22;8518;53.236;10.384;2022-08-19T13:25:16;23.80;99.90
16801;DHT22;8518;53.236;10.384;2022-08-19T13:27:42;23.80;99.90
16801;DHT22;8518;53.236;10.384;2022-08-19T13:30:10;23.80;99.90
16801;DHT22;8518;53.236;10.384;2022-08-19T13:32:55;23.80;99.90
16801;DHT22;8518;53.236;10.384;2022-08-19T13:38:09;24.60;99.90
16801;DHT22;8518;53.236;10.384;2022-08-19T13:40:36;25.30;99.90
16801;DHT22;8518;53.236;10.384;2022-08-19T13:43:03;26.00;99.90
16801;DHT22;8518;53.236;10.384;2022-08-19T13:45:32;26.40;99.90
16801;DHT22;8518;53.236;10.384;2022-08-19T13:48:03;26.50;99.90
16801;DHT22;8518;53.236;10.384;2022-08-19T13:50:37;26.60;99.90
16801;DHT22;8518;53.236;10.384;2022-08-19T13:53:03;27.00;99.90
16801;DHT22;8518;53.236;10.384;2022-08-19T13:55:30;27.80;99.90
16801;DHT22;8518;53.236;10.384;2022-08-19T13:57:58;28.70;99.90
16801;DHT22;8518;53.236;10.384;2022-08-19T14:00:25;29.40;99.90
16801;DHT22;8518;53.236;10.384;2022-08-19T14:02:53;29.70;99.90
16801;DHT22;8518;53.236;10.384;2022-08-19T14:05:20;29.60;99.90
16801;DHT22;8518;53.236;10.384;2022-08-19T14:07:46;29.30;99.90
16801;DHT22;8518;53.236;10.384;2022-08-19T14:10:13;28.80;99.90
16801;DHT22;8518;53.236;10.384;2022-08-19T14:12:40;28.40;99.90
16801;DHT22;8518;53.236;10.384;2022-08-19T14:15:08;28.10;99.90
16801;DHT22;8518;53.236;10.384;2022-08-19T14:17:34;27.70;99.90
16801;DHT22;8518;53.236;10.384;2022-08-19T14:20:03;27.30;99.90
16801;DHT22;8518;53.236;10.384;2022-08-19T14:22:37;26.90;99.90
16801;DHT22;8518;53.236;10.384;2022-08-19T14:25:06;26.60;99.90
16801;DHT22;8518;53.236;10.384;2022-08-19T14:27:39;26.40;99.90
16801;DHT22;8518;53.236;10.384;2022-08-19T14:30:07;26.20;99.90
16801;DHT22;8518;53.236;10.384;2022-08-19T14:32:33;26.10;99.90
16801;DHT22;8518;53.236;10.384;2022-08-19T14:34:59;26.00;99.90
16801;DHT22;8518;53.236;10.384;2022-08-19T14:37:25;26.40;99.90
16801;DHT22;8518;53.236;10.384;2022-08-19T14:39:51;26.90;99.90
16801;DHT22;8518;53.236;10.384;2022-08-19T14:42:17;27.60;99.90
16801;DHT22;8518;53.236;10.384;2022-08-19T14:44:43;28.20;99.90
16801;DHT22;8518;53.236;10.384;2022-08-19T14:47:09;28.80;99.90
16801;DHT22;8518;53.236;10.384;2022-08-19T14:49:35;29.10;99.90
16801;DHT22;8518;53.236;10.384;2022-08-19T14:52:01;29.20;99.90
16801;DHT22;8518;53.236;10.384;2022-08-19T14:54:28;29.20;99.90
16801;DHT22;8518;53.236;10.384;2022-08-19T14:56:53;29.30;99.90
16801;DHT22;8518;53.236;10.384;2022-08-19T14:59:19;29.20;99.90
16801;DHT22;8518;53.236;10.384;2022-08-19T15:01:45;28.90;99.90
16801;DHT22;8518;53.236;10.384;2022-08-19T15:04:10;28.80;99.90
16801;DHT22;8518;53.236;10.384;2022-08-19T15:06:36;28.70;99.90
16801;DHT22;8518;53.236;10.384;2022-08-19T15:09:03;28.70;99.90
16801;DHT22;8518;53.236;10.384;2022-08-19T15:11:29;28.70;99.90
16801;DHT22;8518;53.236;10.384;2022-08-19T15:13:58;28.80;99.90
16801;DHT22;8518;53.236;10.384;2022-08-19T15:16:25;28.70;99.90
16801;DHT22;8518;53.236;10.384;2022-08-19T15:18:55;28.70;99.90
16801;DHT22;8518;53.236;10.384;2022-08-19T15:21:22;28.40;99.90
16801;DHT22;8518;53.236;10.384;2022-08-19T15:23:49;28.30;99.90
16801;DHT22;8518;53.236;10.384;2022-08-19T15:26:17;28.30;99.90
16801;DHT22;8518;53.236;10.384;2022-08-19T15:28:44;28.40;99.90
16801;DHT22;8518;53.236;10.384;2022-08-19T15:31:11;28.40;99.90
16801;DHT22;8518;53.236;10.384;2022-08-19T15:33:38;28.20;99.90
16801;DHT22;8518;53.236;10.384;2022-08-19T15:36:08;28.10;99.90
16801;DHT22;8518;53.236;10.384;2022-08-19T15:38:34;27.90;99.90
16801;DHT22;8518;53.236;10.384;2022-08-19T15:41:02;27.70;99.90
16801;DHT22;8518;53.236;10.384;2022-08-19T15:43:55;27.60;99.90
16801;DHT22;8518;53.236;10.384;2022-08-19T15:46:23;27.50;99.90